Las horas y fechas están en horario UTC
Sumar 1 hora en el horario de invierno y 2 en el de verano

Informes METAR cercanos

 

LEZL - Sevilla (civ/Mil, Spain
Distance from station: NNE 24km
Actualización: 22/10/2018 04:30
Despejado
Despejado
 Viento del NNE
Viento: NNE 9 km/h
Temperatura: 16°C
Rocío: 15°C
Humedad: 94%
Barómetro: 1019 hPa
Resumen: Despejado
Visibility: greater than 10 km
2018/10/22 02:30 LEZL 220230Z 02005KT CAVOK 16/15 Q1019 NOSIG
LEMO - Moron (sp-Usafb), Spain
Distance from station: E 38km
Actualización: 22/10/2018 05:00
Parcialmente nuboso
Parcialmente nuboso
 Viento del E
Viento: E 6 km/h
Temperatura: 15°C
Rocío: 15°C
Humedad: 100%
Barómetro: 1019 hPa
Clouds: Parcialmente nuboso
Visibility: 8 km
2018/10/22 03:00 LEMO 220300Z 08003KT 050V110 8000 NSC 15/15 Q1019 NOSIG
LEJR - Jerez (civ/Mil), Spain
Distance from station: S 53km
Actualización: 22/10/2018 05:00
Few Clouds
Few Clouds
 Viento del N
Viento: N 6 km/h
Temperatura: 15°C
Rocío: 15°C
Humedad: 100%
Barómetro: 1018 hPa
Clouds: Few Clouds
Visibility: 10 km
Cloud details: Few Clouds 1097 m
2018/10/22 03:00 LEJR 220300Z AUTO 01003KT 9999 FEW036/// 15/15 Q1018
 
LERT - Rota Naval Stati, Spain
Distance from station: SSO 71km
Actualización: 22/10/2018 04:00
Despejado
Despejado
 Viento del NE
Viento: NE 6 km/h
Temperatura: 17°C
Rocío: 16°C
Humedad: 94%
Barómetro: 1018 hPa
Resumen: Despejado
Visibility: greater than 10 km
2018/10/22 02:00 LERT 220200Z 05003KT CAVOK 17/16 Q1018 NOSIG
LEBA - Cordoba Airport, Spain
Distance from station: ENE 128km
Actualización: 22/10/2018 04:30
Despejado
Despejado
 Viento del NE
Viento: NE 6 km/h
Temperatura: 14°C
Rocío: 14°C
Humedad: 100%
Barómetro: 1019 hPa
Clouds: Despejado
Visibility: 10 km
2018/10/22 02:30 LEBA 220230Z AUTO 04003KT 9999 NCD 14/14 Q1019
LXGB - Gibraltar (civ/M, Gibraltar
Distance from station: SSE 137km
Actualización: 22/10/2018 03:50
Muy nuboso
Muy nuboso
 Viento del ENE
Viento: ENE 22 km/h
Temperatura: 20°C
Rocío: 19°C
Humedad: 94%
Barómetro: 1019 hPa
Clouds: Muy nuboso
Visibility: 8 km
Cloud details: Muy nuboso 701 m
2018/10/22 01:50 LXGB 220150Z AUTO 06012KT 8000 // BKN023/// 20/19 Q1019
 
LEMG - Malaga (civ/Mil), Spain
Distance from station: ESE 150km
Actualización: 22/10/2018 04:30
Parcialmente nuboso
Parcialmente nuboso
 Viento del ONO
Viento: ONO 6 km/h
Temperatura: 18°C
Rocío: 17°C
Humedad: 94%
Barómetro: 1019 hPa
Clouds: Parcialmente nuboso
Visibility: 10 km
Cloud details: Parcialmente nuboso 762 m
Parcialmente nuboso 914 m
2018/10/22 02:30 LEMG 220230Z 29003KT 260V330 9999 SCT025 SCT030 18/17 Q1019 NOSIG
GMTT - Tangier/Boukhalf, Morocco
Distance from station: S 169km
Actualización: 22/10/2018 04:30
Parcialmente nuboso
Parcialmente nuboso
 Viento del E
Viento: E 9 km/h
Temperatura: 18°C
Rocío: 16°C
Humedad: 88%
Barómetro: 1017 hPa
Clouds: Parcialmente nuboso
Visibility: 6 km
Cloud details: Few Clouds 488 m
Parcialmente nuboso 6096 m
2018/10/22 02:30 GMTT 220230Z 09005KT 6000 FEW016 SCT200 18/16 Q1017 NOSIG
LPFR - Faro, Portugal
Distance from station: O 172km
Actualización: 22/10/2018 04:30
Few Clouds
Few Clouds
 Viento del NNE
Viento: NNE 11 km/h
Temperatura: 17°C
Rocío: 14°C
Humedad: 83%
Barómetro: 1018 hPa
Clouds: Few Clouds
Visibility: 10 km
Cloud details: Few Clouds 914 m
2018/10/22 02:30 LPFR 220230Z 03006KT 9999 FEW030 17/14 Q1018
 
LPBJ - Beja (por/Ger-Af, Portugal
Distance from station: ONO 192km
Actualización: 22/10/2018 04:00
Few Clouds
Few Clouds
 Viento del varies
Viento: varies 2 km/h
Temperatura: 13°C
Rocío: 12°C
Humedad: 94%
Barómetro: 1020 hPa
Clouds: Few Clouds
Visibility: 10 km
Cloud details: Few Clouds 457 m
2018/10/22 02:00 LPBJ 220200Z VRB01KT 9999 FEW015 13/12 Q1020
LEBZ - Talavera Ab/Bada, Spain
Distance from station: NNO 194km
Actualización: 21/10/2018 21:00
NOT Current
Few Clouds
Few Clouds
 Viento del NE
Viento: NE 4 km/h
Temperatura: 20°C
Rocío: 16°C
Humedad: 78%
Barómetro: 1018 hPa
Clouds: Few Clouds
Visibility: 10 km
Cloud details: Few Clouds 1067 m
2018/10/21 19:00 LEBZ 211900Z 04002KT 9999 FEW035TCU 20/16 Q1018
LEMD - Madrid/Barajas, Spain
Distance from station: NE 415km
Actualización: 22/10/2018 04:30
Despejado
Despejado
 Viento del ONO
Viento: ONO 7 km/h
Temperatura: 13°C
Rocío: 12°C
Humedad: 94%
Barómetro: 1022 hPa
Resumen: Despejado
Visibility: greater than 10 km
2018/10/22 02:30 LEMD 220230Z 30004KT CAVOK 13/12 Q1022 NOSIG